createdAt,value
2022-08-05T00:00:16.009Z,74.50
2022-08-05T00:01:20.998Z,74.70
2022-08-05T00:02:16.987Z,74.00
2022-08-05T00:03:15.449Z,73.60
2022-08-05T00:04:14.123Z,73.80
2022-08-05T00:06:03.006Z,74.20
2022-08-05T00:06:28.949Z,73.80
2022-08-05T00:07:26.764Z,73.50
2022-08-05T00:08:32.827Z,73.70
2022-08-05T00:09:19.739Z,73.40
2022-08-05T00:10:18.692Z,73.30
2022-08-05T00:11:20.656Z,73.30
2022-08-05T00:12:15.635Z,73.30
2022-08-05T00:13:18.757Z,73.40
2022-08-05T00:14:18.476Z,73.90
2022-08-05T00:15:57.993Z,73.00
2022-08-05T00:16:16.591Z,73.10
2022-08-05T00:17:18.812Z,72.40
2022-08-05T00:18:19.827Z,72.70
2022-08-05T00:19:17.101Z,72.30
2022-08-05T00:20:20.264Z,72.40
2022-08-05T00:21:15.974Z,72.40
2022-08-05T00:22:18.092Z,72.40
2022-08-05T00:23:17.902Z,72.40
2022-08-05T00:24:18.978Z,72.20
2022-08-05T00:25:17.306Z,72.20
2022-08-05T00:26:17.687Z,72.20
2022-08-05T00:27:16.728Z,71.90
2022-08-05T00:28:16.717Z,71.80
2022-08-05T00:29:16.551Z,72.20
2022-08-05T00:30:14.864Z,72.80
2022-08-05T00:31:53.635Z,72.90
2022-08-05T00:32:14.914Z,72.00
2022-08-05T00:34:56.987Z,71.20
2022-08-05T00:34:57.051Z,72.10
2022-08-05T00:35:15.221Z,70.80
2022-08-05T00:37:09.036Z,72.20
2022-08-05T00:37:16.312Z,72.00
2022-08-05T00:38:16.467Z,71.80
2022-08-05T00:39:13.854Z,72.60
2022-08-05T00:40:27.864Z,71.70
2022-08-05T00:41:19.794Z,71.70
2022-08-05T00:42:31.917Z,71.60
2022-08-05T00:43:15.384Z,71.60
2022-08-05T00:44:17.805Z,71.90
2022-08-05T00:45:15.670Z,72.10
2022-08-05T00:46:19.807Z,71.50
2022-08-05T00:47:16.390Z,71.00
2022-08-05T00:48:15.211Z,70.80
2022-08-05T00:49:15.180Z,70.90
2022-08-05T00:50:13.467Z,70.30
2022-08-05T00:51:51.051Z,70.40
2022-08-05T00:52:14.654Z,69.50
2022-08-05T00:54:01.456Z,69.70
2022-08-05T00:54:18.409Z,69.90
2022-08-05T00:55:16.453Z,70.20
2022-08-05T00:56:13.587Z,70.10
2022-08-05T00:57:16.647Z,69.70
2022-08-05T00:58:14.760Z,69.50
2022-08-05T00:59:17.826Z,69.60
2022-08-05T01:00:21.908Z,70.20
2022-08-05T01:01:15.272Z,70.00
2022-08-05T01:02:15.454Z,70.00
2022-08-05T01:03:22.524Z,70.10
2022-08-05T01:04:15.923Z,69.70
2022-08-05T01:05:17.896Z,69.40
2022-08-05T01:06:17.147Z,69.90
2022-08-05T01:07:18.160Z,69.80
2022-08-05T01:08:30.292Z,69.40
2022-08-05T01:09:17.355Z,69.80
2022-08-05T01:10:16.176Z,69.70
2022-08-05T01:11:21.884Z,69.90
2022-08-05T01:12:18.552Z,69.60
2022-08-05T01:13:22.290Z,69.80
2022-08-05T01:14:15.513Z,69.50
2022-08-05T01:15:35.616Z,69.00
2022-08-05T01:16:23.016Z,69.10
2022-08-05T01:17:17.867Z,69.30
2022-08-05T01:18:14.635Z,69.10
2022-08-05T01:19:18.692Z,69.30
2022-08-05T01:20:15.448Z,69.00
2022-08-05T01:21:22.878Z,68.50
2022-08-05T01:22:23.933Z,68.50
2022-08-05T01:23:15.510Z,68.70
2022-08-05T01:24:14.416Z,69.10
2022-08-05T01:25:15.172Z,69.90
2022-08-05T01:26:17.825Z,69.80
2022-08-05T01:27:17.925Z,70.00
2022-08-05T01:28:15.139Z,69.20
2022-08-05T01:29:14.566Z,69.00
2022-08-05T01:30:18.686Z,68.90
2022-08-05T01:31:14.483Z,69.00
2022-08-05T01:32:18.569Z,69.20
2022-08-05T01:33:19.651Z,69.30
2022-08-05T01:34:17.737Z,69.20
2022-08-05T01:35:51.758Z,69.30
2022-08-05T01:36:16.293Z,68.60
2022-08-05T01:37:18.139Z,68.30
2022-08-05T01:38:27.582Z,68.20
2022-08-05T01:39:15.209Z,68.20
2022-08-05T01:40:19.157Z,67.90
2022-08-05T01:41:13.200Z,68.20
2022-08-05T01:42:20.843Z,68.00
2022-08-05T01:43:22.343Z,68.30
2022-08-05T01:44:16.605Z,68.30
2022-08-05T01:45:16.492Z,68.40
2022-08-05T01:46:42.020Z,68.10
2022-08-05T01:47:16.493Z,68.30
2022-08-05T01:48:16.600Z,68.40
2022-08-05T01:49:23.258Z,68.90
2022-08-05T01:50:15.396Z,69.10
2022-08-05T01:51:13.137Z,69.20
2022-08-05T01:52:17.994Z,69.20
2022-08-05T01:53:55.151Z,69.20
2022-08-05T01:54:15.449Z,69.50
2022-08-05T01:55:15.050Z,70.30
2022-08-05T01:58:09.705Z,70.50
2022-08-05T01:58:16.731Z,70.70
2022-08-05T01:58:29.790Z,70.20
2022-08-05T01:59:14.605Z,70.70
2022-08-05T02:00:17.723Z,71.40
2022-08-05T02:01:17.004Z,71.40
2022-08-05T02:02:18.684Z,72.20
2022-08-05T02:03:24.210Z,73.20
2022-08-05T02:04:17.299Z,73.60
2022-08-05T02:05:15.214Z,73.50
2022-08-05T02:06:37.452Z,73.30
2022-08-05T02:07:19.928Z,73.60
2022-08-05T02:08:16.545Z,73.70
2022-08-05T02:09:21.209Z,73.70
2022-08-05T02:10:17.308Z,73.30
2022-08-05T02:11:23.574Z,73.30
2022-08-05T02:12:18.451Z,72.80
2022-08-05T02:13:16.218Z,72.50
2022-08-05T02:14:17.591Z,72.70
2022-08-05T02:15:14.027Z,72.60
2022-08-05T02:16:16.309Z,72.50
2022-08-05T02:17:29.700Z,72.40
2022-08-05T02:18:31.485Z,72.30
2022-08-05T02:19:16.874Z,72.30
2022-08-05T02:20:15.446Z,71.80
2022-08-05T02:21:15.823Z,71.50
2022-08-05T02:22:25.651Z,71.40
2022-08-05T02:23:18.766Z,71.50
2022-08-05T02:24:17.859Z,71.90
2022-08-05T02:25:18.033Z,71.90
2022-08-05T02:26:17.399Z,72.10
2022-08-05T02:27:15.197Z,73.00
2022-08-05T02:28:17.039Z,73.70
2022-08-05T02:29:21.530Z,73.80
2022-08-05T02:30:14.730Z,74.40
2022-08-05T02:31:21.263Z,75.50
2022-08-05T02:32:23.647Z,75.50
2022-08-05T02:33:16.653Z,75.50
2022-08-05T02:34:16.657Z,75.40
2022-08-05T02:35:14.626Z,75.70
2022-08-05T02:36:17.309Z,76.40
2022-08-05T02:37:13.913Z,76.40
2022-08-05T02:38:19.284Z,76.30
2022-08-05T02:39:16.187Z,76.70
2022-08-05T02:40:17.291Z,76.60
2022-08-05T02:41:17.286Z,76.90
2022-08-05T02:42:25.912Z,77.40
2022-08-05T02:43:14.172Z,77.00
2022-08-05T02:44:14.984Z,77.00
2022-08-05T02:45:15.082Z,76.40
2022-08-05T02:46:16.489Z,76.60
2022-08-05T02:47:13.877Z,77.20
2022-08-05T02:48:14.115Z,77.40
2022-08-05T02:49:13.873Z,77.40
2022-08-05T02:50:18.578Z,77.40
2022-08-05T02:51:16.836Z,77.30
2022-08-05T02:52:29.849Z,77.40
2022-08-05T02:53:16.176Z,78.00
2022-08-05T02:54:35.026Z,78.10
2022-08-05T02:55:17.576Z,78.50
2022-08-05T02:56:18.967Z,79.00
2022-08-05T02:58:09.288Z,78.80
2022-08-05T02:58:15.106Z,78.30
2022-08-05T02:59:18.098Z,78.30
2022-08-05T03:00:16.783Z,78.10
2022-08-05T03:01:15.838Z,78.30
2022-08-05T03:02:13.508Z,78.40
2022-08-05T03:03:15.490Z,77.80
2022-08-05T03:04:15.740Z,77.90
2022-08-05T03:05:16.995Z,78.40
2022-08-05T03:06:55.815Z,78.80
2022-08-05T03:07:24.713Z,79.30
2022-08-05T03:08:15.183Z,80.20
2022-08-05T03:09:18.065Z,80.10
2022-08-05T03:10:24.687Z,80.00
2022-08-05T03:11:54.642Z,80.10
2022-08-05T03:12:13.815Z,80.30
2022-08-05T03:13:16.777Z,80.80
2022-08-05T03:14:16.455Z,81.00
2022-08-05T03:15:13.521Z,81.30
2022-08-05T03:16:13.403Z,81.30
2022-08-05T03:17:15.646Z,82.40
2022-08-05T03:18:17.616Z,82.10
2022-08-05T03:19:34.134Z,82.30
2022-08-05T03:20:13.999Z,81.80
2022-08-05T03:21:14.691Z,82.40
2022-08-05T03:22:16.596Z,82.30
2022-08-05T03:23:16.088Z,82.50
2022-08-05T03:24:15.503Z,81.90
2022-08-05T03:25:34.016Z,82.10
2022-08-05T03:26:31.569Z,81.40
2022-08-05T03:27:14.993Z,81.30
2022-08-05T03:28:13.870Z,81.60
2022-08-05T03:29:13.106Z,81.40
2022-08-05T03:30:16.770Z,81.60
2022-08-05T03:31:18.307Z,81.50
2022-08-05T03:32:17.428Z,81.60
2022-08-05T03:33:15.649Z,80.90
2022-08-05T03:34:15.289Z,80.70
2022-08-05T03:35:14.838Z,81.00
2022-08-05T03:36:14.944Z,82.90
2022-08-05T03:37:14.845Z,83.50
2022-08-05T03:38:17.448Z,83.90
2022-08-05T03:39:20.370Z,84.20
2022-08-05T03:40:13.030Z,83.80
2022-08-05T03:41:15.113Z,84.40
2022-08-05T03:42:13.341Z,86.10
2022-08-05T03:43:58.220Z,86.50
2022-08-05T03:44:13.541Z,87.00
2022-08-05T03:45:21.499Z,87.30
2022-08-05T03:46:12.829Z,87.90
2022-08-05T03:47:13.644Z,87.80
2022-08-05T03:48:15.349Z,88.10
2022-08-05T03:49:13.010Z,88.40
2022-08-05T03:50:13.198Z,88.90
2022-08-05T03:52:37.526Z,89.20
2022-08-05T03:52:49.385Z,89.60
2022-08-05T03:55:51.689Z,90.90
2022-08-05T03:56:01.078Z,90.00
2022-08-05T03:56:04.906Z,91.80
2022-08-05T03:56:27.903Z,92.40
2022-08-05T03:57:16.099Z,92.90
2022-08-05T03:58:13.750Z,93.10
2022-08-05T03:59:12.816Z,93.20
2022-08-05T04:00:15.912Z,92.70
2022-08-05T04:01:13.579Z,93.30
2022-08-05T04:02:17.390Z,93.50
2022-08-05T04:03:14.876Z,94.00
2022-08-05T04:04:13.628Z,94.40
2022-08-05T04:05:13.673Z,94.70
2022-08-05T04:06:15.391Z,94.70
2022-08-05T04:07:13.251Z,94.40
2022-08-05T04:08:14.734Z,94.50
2022-08-05T04:09:14.417Z,95.50
2022-08-05T04:10:13.393Z,95.60
2022-08-05T04:11:13.478Z,95.40
2022-08-05T04:12:24.370Z,95.40
2022-08-05T04:13:12.822Z,94.70
2022-08-05T04:14:17.865Z,94.30
2022-08-05T04:15:15.616Z,94.60
2022-08-05T04:16:14.320Z,95.30
2022-08-05T04:17:13.558Z,95.90
2022-08-05T04:18:20.519Z,95.90
2022-08-05T04:19:13.624Z,95.60
2022-08-05T04:20:14.203Z,95.50
2022-08-05T04:21:14.254Z,95.40
2022-08-05T04:22:13.256Z,95.00
2022-08-05T04:23:16.111Z,94.90
2022-08-05T04:24:18.694Z,94.90
2022-08-05T04:25:13.753Z,95.40
2022-08-05T04:26:13.704Z,95.40
2022-08-05T04:27:13.949Z,95.60
2022-08-05T04:28:15.190Z,96.10
2022-08-05T04:29:13.270Z,96.00
2022-08-05T04:30:13.415Z,96.20
2022-08-05T04:31:15.977Z,96.10
2022-08-05T04:32:12.980Z,96.40
2022-08-05T04:33:12.944Z,96.50
2022-08-05T04:34:19.201Z,96.60
2022-08-05T04:35:17.651Z,96.50
2022-08-05T04:36:44.657Z,96.20
2022-08-05T04:37:13.438Z,96.50
2022-08-05T04:38:15.628Z,96.60
2022-08-05T04:39:13.775Z,96.70
2022-08-05T04:40:13.652Z,96.30
2022-08-05T04:41:13.348Z,95.90
2022-08-05T04:42:15.230Z,95.60
2022-08-05T04:43:16.606Z,96.30
2022-08-05T04:44:12.937Z,96.30
2022-08-05T04:45:22.838Z,96.30
2022-08-05T04:46:13.375Z,96.60
2022-08-05T04:47:18.379Z,97.40
2022-08-05T04:48:18.398Z,97.80
2022-08-05T04:49:19.351Z,98.20
2022-08-05T04:50:12.930Z,97.90
2022-08-05T04:51:13.291Z,97.90
2022-08-05T04:52:13.521Z,98.30
2022-08-05T04:53:13.431Z,98.60
2022-08-05T04:54:12.995Z,98.50
2022-08-05T04:55:14.254Z,97.80
2022-08-05T04:56:33.983Z,98.20
2022-08-05T04:57:13.439Z,98.30
2022-08-05T04:58:13.323Z,99.00
2022-08-05T04:59:22.205Z,99.00
2022-08-05T05:00:14.614Z,99.20
2022-08-05T05:01:13.815Z,99.30
2022-08-05T05:02:37.196Z,98.80
2022-08-05T05:03:13.003Z,99.30
2022-08-05T05:04:13.825Z,99.50
2022-08-05T05:05:16.626Z,99.60
2022-08-05T05:06:40.753Z,99.60
2022-08-05T05:07:15.931Z,100.00
2022-08-05T05:08:14.469Z,99.70
2022-08-05T05:09:14.038Z,100.00
2022-08-05T05:10:15.433Z,100.00
2022-08-05T05:11:15.301Z,100.00
2022-08-05T05:12:15.048Z,100.00
2022-08-05T05:13:13.084Z,100.00
2022-08-05T05:14:16.120Z,99.50
2022-08-05T05:15:13.418Z,99.40
2022-08-05T05:16:13.579Z,99.90
2022-08-05T05:17:14.865Z,99.90
2022-08-05T05:18:13.887Z,99.70
2022-08-05T05:19:18.897Z,99.60
2022-08-05T05:20:13.771Z,99.60
2022-08-05T05:21:12.950Z,100.00
2022-08-05T05:22:24.049Z,100.00
2022-08-05T05:23:19.932Z,100.00
2022-08-05T05:24:13.132Z,100.00
2022-08-05T05:25:16.123Z,99.60
2022-08-05T05:26:13.543Z,100.00
2022-08-05T05:27:13.218Z,99.90
2022-08-05T05:28:13.118Z,99.90
2022-08-05T05:29:14.834Z,99.70
2022-08-05T05:30:29.644Z,99.50
2022-08-05T05:31:13.599Z,100.00
2022-08-05T05:32:15.542Z,100.00
2022-08-05T05:33:17.001Z,100.00
2022-08-05T05:34:15.529Z,99.90
2022-08-05T05:35:13.294Z,100.00
2022-08-05T05:36:13.036Z,100.00
2022-08-05T05:37:13.759Z,100.00
2022-08-05T05:38:14.167Z,100.00
2022-08-05T05:39:13.668Z,100.00
2022-08-05T05:40:13.364Z,100.00
2022-08-05T05:41:13.153Z,100.00
2022-08-05T05:42:13.717Z,100.00
2022-08-05T05:43:14.038Z,99.70
2022-08-05T05:44:26.984Z,99.20
2022-08-05T05:45:14.156Z,99.40
2022-08-05T05:46:16.085Z,99.70
2022-08-05T05:47:30.362Z,100.00
2022-08-05T05:48:16.161Z,100.00
2022-08-05T05:49:22.602Z,100.00
2022-08-05T05:50:16.425Z,100.00
2022-08-05T05:51:15.010Z,100.00
2022-08-05T05:52:13.386Z,100.00
2022-08-05T05:53:21.496Z,100.00
2022-08-05T05:54:12.971Z,100.00
2022-08-05T05:55:14.806Z,100.00
2022-08-05T05:56:14.297Z,100.00
2022-08-05T05:57:19.008Z,100.00
2022-08-05T05:58:13.352Z,100.00
2022-08-05T05:59:13.296Z,99.80
2022-08-05T06:00:13.149Z,99.90
2022-08-05T06:01:15.338Z,100.00
2022-08-05T06:02:13.641Z,100.00
2022-08-05T06:03:40.517Z,100.00
2022-08-05T06:04:14.871Z,100.00
2022-08-05T06:05:16.577Z,100.00
2022-08-05T06:06:13.167Z,100.00
2022-08-05T06:07:13.075Z,100.00
2022-08-05T06:08:13.252Z,100.00
2022-08-05T06:09:17.430Z,100.00
2022-08-05T06:10:15.544Z,100.00
2022-08-05T06:11:13.754Z,100.00
2022-08-05T06:12:13.751Z,100.00
2022-08-05T06:13:15.383Z,100.00
2022-08-05T06:14:13.448Z,100.00
2022-08-05T06:15:23.659Z,100.00
2022-08-05T06:16:29.147Z,100.00
2022-08-05T06:17:22.574Z,100.00
2022-08-05T06:18:13.668Z,100.00
2022-08-05T06:19:13.459Z,100.00
2022-08-05T06:20:21.386Z,100.00
2022-08-05T06:21:16.562Z,100.00
2022-08-05T06:22:13.871Z,100.00
2022-08-05T06:23:13.057Z,100.00
2022-08-05T06:24:14.833Z,100.00
2022-08-05T06:25:59.408Z,100.00
2022-08-05T06:26:20.817Z,100.00
2022-08-05T06:28:08.831Z,100.00
2022-08-05T06:28:20.901Z,100.00
2022-08-05T06:29:42.789Z,100.00
2022-08-05T06:30:17.900Z,100.00
2022-08-05T06:31:18.064Z,100.00
2022-08-05T06:32:21.304Z,100.00
2022-08-05T06:33:19.277Z,100.00
2022-08-05T06:34:15.801Z,100.00
2022-08-05T06:35:15.519Z,100.00
2022-08-05T06:36:15.763Z,100.00
2022-08-05T06:37:14.797Z,100.00
2022-08-05T06:38:13.681Z,100.00
2022-08-05T06:39:15.052Z,100.00
2022-08-05T06:40:13.658Z,100.00
2022-08-05T06:41:14.026Z,100.00
2022-08-05T06:42:14.489Z,100.00
2022-08-05T06:43:59.755Z,100.00
2022-08-05T06:44:13.102Z,100.00
2022-08-05T06:45:21.181Z,100.00
2022-08-05T06:46:13.890Z,100.00
2022-08-05T06:47:30.326Z,100.00
2022-08-05T06:48:53.598Z,100.00
2022-08-05T06:49:13.734Z,100.00
2022-08-05T06:50:17.357Z,100.00
2022-08-05T06:51:25.324Z,100.00
2022-08-05T06:52:37.290Z,100.00
2022-08-05T06:53:22.679Z,100.00
2022-08-05T06:54:18.929Z,100.00
2022-08-05T06:55:13.375Z,100.00
2022-08-05T06:56:25.929Z,100.00
2022-08-05T06:57:56.923Z,100.00
2022-08-05T06:58:29.747Z,100.00
2022-08-05T06:59:13.031Z,100.00
2022-08-05T07:00:12.930Z,100.00
2022-08-05T07:01:13.353Z,100.00
2022-08-05T07:02:13.251Z,100.00
2022-08-05T07:03:12.859Z,100.00
2022-08-05T07:04:14.065Z,100.00
2022-08-05T07:05:18.659Z,100.00
2022-08-05T07:06:14.151Z,100.00
2022-08-05T07:07:13.431Z,100.00
2022-08-05T07:08:13.290Z,100.00
2022-08-05T07:09:13.959Z,100.00
2022-08-05T07:10:14.879Z,100.00
2022-08-05T07:11:15.582Z,100.00
2022-08-05T07:12:13.982Z,100.00
2022-08-05T07:13:13.280Z,100.00
2022-08-05T07:14:20.001Z,100.00
2022-08-05T07:15:13.762Z,100.00
2022-08-05T07:17:55.939Z,100.00
2022-08-05T07:18:07.058Z,100.00
2022-08-05T07:18:20.414Z,100.00
2022-08-05T07:19:16.074Z,100.00
2022-08-05T07:20:34.154Z,100.00
2022-08-05T07:21:13.148Z,100.00
2022-08-05T07:22:15.790Z,100.00
2022-08-05T07:23:13.129Z,100.00
2022-08-05T07:24:15.256Z,100.00
2022-08-05T07:25:54.433Z,100.00
2022-08-05T07:26:15.025Z,100.00
2022-08-05T07:27:13.488Z,100.00
2022-08-05T07:28:17.391Z,100.00
2022-08-05T07:29:13.785Z,100.00
2022-08-05T07:30:25.372Z,100.00
2022-08-05T07:31:13.500Z,100.00
2022-08-05T07:32:15.129Z,100.00
2022-08-05T07:33:16.812Z,100.00
2022-08-05T07:34:14.086Z,100.00
2022-08-05T07:36:03.319Z,100.00
2022-08-05T07:36:20.676Z,100.00
2022-08-05T07:37:14.583Z,100.00
2022-08-05T07:38:32.957Z,100.00
2022-08-05T07:39:24.692Z,100.00
2022-08-05T07:40:31.355Z,100.00
2022-08-05T07:42:07.246Z,100.00
2022-08-05T07:42:16.155Z,100.00
2022-08-05T07:43:20.520Z,100.00
2022-08-05T07:44:18.431Z,100.00
2022-08-05T07:45:13.530Z,100.00
2022-08-05T07:46:24.398Z,100.00
2022-08-05T07:47:14.838Z,100.00
2022-08-05T07:48:13.110Z,100.00
2022-08-05T07:49:13.300Z,100.00
2022-08-05T07:50:16.517Z,100.00
2022-08-05T07:51:23.863Z,100.00
2022-08-05T07:52:12.890Z,100.00
2022-08-05T07:53:13.349Z,100.00
2022-08-05T07:54:13.828Z,100.00
2022-08-05T07:55:44.002Z,100.00
2022-08-05T07:57:02.476Z,100.00
2022-08-05T07:57:42.080Z,100.00
2022-08-05T07:58:17.770Z,100.00
2022-08-05T07:59:13.515Z,100.00
2022-08-05T08:00:14.901Z,100.00
2022-08-05T08:01:12.995Z,100.00
2022-08-05T08:02:17.080Z,100.00
2022-08-05T08:03:15.627Z,100.00
2022-08-05T08:04:13.257Z,100.00
2022-08-05T08:05:14.775Z,100.00
2022-08-05T08:06:15.296Z,100.00
2022-08-05T08:07:13.414Z,100.00
2022-08-05T08:08:16.290Z,100.00
2022-08-05T08:09:13.395Z,100.00
2022-08-05T08:10:15.015Z,100.00
2022-08-05T08:11:15.916Z,100.00
2022-08-05T08:12:27.467Z,100.00
2022-08-05T08:13:13.717Z,100.00
2022-08-05T08:14:18.327Z,100.00
2022-08-05T08:15:15.107Z,99.10
2022-08-05T08:16:35.401Z,99.00
2022-08-05T08:17:15.785Z,98.40
2022-08-05T08:18:14.369Z,98.20
2022-08-05T08:20:10.331Z,98.40
2022-08-05T08:20:42.587Z,98.50
2022-08-05T08:21:15.983Z,97.70
2022-08-05T08:22:15.980Z,97.50
2022-08-05T08:24:02.579Z,97.20
2022-08-05T08:24:15.061Z,97.30
2022-08-05T08:25:15.753Z,97.20
2022-08-05T08:26:13.552Z,96.80
2022-08-05T08:27:16.556Z,96.20
2022-08-05T08:28:18.959Z,96.10
2022-08-05T08:29:29.381Z,95.90
2022-08-05T08:30:29.765Z,96.10
2022-08-05T08:31:15.036Z,95.60
2022-08-05T08:32:13.587Z,95.40
2022-08-05T08:33:13.818Z,95.90
2022-08-05T08:34:13.403Z,95.90
2022-08-05T08:35:13.902Z,95.50
2022-08-05T08:36:38.967Z,96.10
2022-08-05T08:37:12.965Z,95.70
2022-08-05T08:38:16.390Z,95.60
2022-08-05T08:39:16.410Z,94.70
2022-08-05T08:40:13.699Z,94.20
2022-08-05T08:41:14.001Z,93.90
2022-08-05T08:42:32.714Z,94.60
2022-08-05T08:45:17.036Z,93.90
2022-08-05T08:45:20.171Z,95.00
2022-08-05T08:45:24.841Z,94.70
2022-08-05T08:46:15.492Z,94.60
2022-08-05T08:47:47.534Z,94.10
2022-08-05T08:48:36.070Z,94.30
2022-08-05T08:50:22.688Z,96.10
2022-08-05T08:50:31.618Z,96.70
2022-08-05T08:52:02.020Z,96.70
2022-08-05T08:52:14.367Z,96.20
2022-08-05T08:53:13.547Z,96.00
2022-08-05T08:54:13.774Z,95.90
2022-08-05T08:55:13.388Z,96.20
2022-08-05T08:56:13.219Z,96.50
2022-08-05T08:57:13.716Z,96.30
2022-08-05T08:58:13.916Z,95.60
2022-08-05T08:59:19.464Z,96.00
2022-08-05T09:00:15.613Z,95.70
2022-08-05T09:01:15.828Z,97.00
2022-08-05T09:02:13.354Z,97.00
2022-08-05T09:03:16.099Z,96.70
2022-08-05T09:04:13.454Z,96.50
2022-08-05T09:05:16.430Z,95.90
2022-08-05T09:06:17.193Z,96.00
2022-08-05T09:07:19.425Z,95.90
2022-08-05T09:08:13.926Z,95.60
2022-08-05T09:09:12.948Z,95.10
2022-08-05T09:10:13.521Z,94.70
2022-08-05T09:11:13.895Z,94.40
2022-08-05T09:12:20.797Z,94.60
2022-08-05T09:13:16.696Z,94.90
2022-08-05T09:14:57.810Z,95.50
2022-08-05T09:15:12.983Z,95.30
2022-08-05T09:16:14.513Z,95.70
2022-08-05T09:17:39.885Z,95.40
2022-08-05T09:18:13.327Z,95.50
2022-08-05T09:19:14.640Z,96.00
2022-08-05T09:20:36.686Z,95.40
2022-08-05T09:21:21.138Z,95.10
2022-08-05T09:22:31.220Z,94.50
2022-08-05T09:23:18.625Z,94.40
2022-08-05T09:24:13.116Z,94.30
2022-08-05T09:25:23.684Z,93.50
2022-08-05T09:26:15.830Z,92.30
2022-08-05T09:27:13.182Z,91.60
2022-08-05T09:28:13.330Z,92.60
2022-08-05T09:29:18.746Z,92.00
2022-08-05T09:30:16.337Z,91.90
2022-08-05T09:31:43.300Z,91.20
2022-08-05T09:32:41.178Z,90.50
2022-08-05T09:33:17.051Z,91.20
2022-08-05T09:34:13.519Z,90.90
2022-08-05T09:35:26.948Z,90.80
2022-08-05T09:36:16.238Z,89.80
2022-08-05T09:37:15.125Z,89.40
2022-08-05T09:38:18.240Z,90.00
2022-08-05T09:39:18.307Z,90.20
2022-08-05T09:40:14.651Z,90.10
2022-08-05T09:41:16.076Z,89.40
2022-08-05T09:42:23.080Z,89.30
2022-08-05T09:43:12.759Z,88.80
2022-08-05T09:44:13.708Z,88.20
2022-08-05T09:46:05.286Z,88.10
2022-08-05T09:46:13.614Z,86.80
2022-08-05T09:47:15.581Z,86.40
2022-08-05T09:48:17.830Z,86.80
2022-08-05T09:49:19.350Z,86.90
2022-08-05T09:50:13.700Z,86.20
2022-08-05T09:51:18.615Z,86.10
2022-08-05T09:52:14.206Z,84.80
2022-08-05T09:53:22.728Z,85.90
2022-08-05T09:54:13.531Z,86.40
2022-08-05T09:55:56.403Z,85.80
2022-08-05T09:56:13.635Z,85.90
2022-08-05T09:57:23.130Z,84.60
2022-08-05T09:58:13.632Z,85.90
2022-08-05T09:59:16.923Z,85.90
2022-08-05T10:00:13.617Z,86.20
2022-08-05T10:01:15.240Z,85.00
2022-08-05T10:02:13.581Z,85.10
2022-08-05T10:03:13.779Z,85.20
2022-08-05T10:04:16.188Z,84.90
2022-08-05T10:05:13.418Z,84.90
2022-08-05T10:06:15.807Z,85.70
2022-08-05T10:07:20.227Z,86.50
2022-08-05T10:08:37.749Z,86.60
2022-08-05T10:09:27.667Z,85.50
2022-08-05T10:10:14.929Z,85.90
2022-08-05T10:11:13.761Z,85.00
2022-08-05T10:12:18.916Z,84.60
2022-08-05T10:13:14.666Z,83.30
2022-08-05T10:14:13.654Z,84.50
2022-08-05T10:15:13.703Z,84.60
2022-08-05T10:16:13.202Z,84.10
2022-08-05T10:17:14.121Z,84.50
2022-08-05T10:18:12.859Z,83.90
2022-08-05T10:19:15.815Z,83.90
2022-08-05T10:20:12.946Z,84.50
2022-08-05T10:21:16.328Z,85.20
2022-08-05T10:22:15.759Z,85.10
2022-08-05T10:23:34.339Z,85.60
2022-08-05T10:24:13.851Z,86.60
2022-08-05T10:25:14.454Z,87.30
2022-08-05T10:26:14.870Z,87.10
2022-08-05T10:27:13.449Z,86.40
2022-08-05T10:28:19.173Z,86.90
2022-08-05T10:29:13.212Z,87.70
2022-08-05T10:32:48.227Z,87.80
2022-08-05T10:32:51.664Z,87.70
2022-08-05T10:32:55.537Z,87.80
2022-08-05T10:33:15.072Z,87.50
2022-08-05T10:34:13.788Z,86.70
2022-08-05T10:35:13.101Z,87.30
2022-08-05T10:36:12.975Z,87.30
2022-08-05T10:37:13.024Z,87.60
2022-08-05T10:38:13.684Z,87.50
2022-08-05T10:39:24.053Z,87.00
2022-08-05T10:40:18.528Z,86.40
2022-08-05T10:41:13.674Z,88.20
2022-08-05T10:42:12.949Z,88.20
2022-08-05T10:43:12.796Z,89.10
2022-08-05T10:44:13.140Z,89.40
2022-08-05T10:45:23.252Z,89.20
2022-08-05T10:46:13.799Z,88.50
2022-08-05T10:47:25.780Z,88.60
2022-08-05T10:48:29.421Z,87.90
2022-08-05T10:49:16.945Z,88.30
2022-08-05T10:50:20.429Z,88.90
2022-08-05T10:51:22.375Z,87.10
2022-08-05T10:52:13.930Z,86.70
2022-08-05T10:53:12.852Z,86.90
2022-08-05T10:54:28.713Z,87.10
2022-08-05T10:55:15.988Z,88.00
2022-08-05T10:56:21.355Z,87.50
2022-08-05T10:57:14.544Z,87.10
2022-08-05T10:58:14.903Z,87.40
2022-08-05T11:00:02.727Z,88.30
2022-08-05T11:00:18.477Z,88.70
2022-08-05T11:01:13.559Z,89.30
2022-08-05T11:02:38.494Z,88.30
2022-08-05T11:03:25.731Z,87.60
2022-08-05T11:04:13.782Z,87.60
2022-08-05T11:05:13.681Z,85.50
2022-08-05T11:06:15.032Z,85.00
2022-08-05T11:07:13.795Z,83.70
2022-08-05T11:08:33.931Z,83.50
2022-08-05T11:09:16.566Z,81.50
2022-08-05T11:10:13.405Z,80.80
2022-08-05T11:11:16.713Z,81.70
2022-08-05T11:12:13.181Z,81.50
2022-08-05T11:13:13.425Z,82.40
2022-08-05T11:14:14.043Z,81.80
2022-08-05T11:15:20.755Z,81.60
2022-08-05T11:16:13.184Z,80.30
2022-08-05T11:17:59.782Z,80.30
2022-08-05T11:18:13.563Z,79.70
2022-08-05T11:20:10.418Z,80.00
2022-08-05T11:20:18.273Z,81.00
2022-08-05T11:21:13.554Z,80.80
2022-08-05T11:22:13.549Z,81.00
2022-08-05T11:23:13.887Z,76.90
2022-08-05T11:24:29.831Z,74.10
2022-08-05T11:25:37.280Z,71.70
2022-08-05T11:26:14.277Z,71.10
2022-08-05T11:27:17.396Z,68.60
2022-08-05T11:28:17.207Z,68.30
2022-08-05T11:29:17.020Z,70.30
2022-08-05T11:30:14.478Z,70.10
2022-08-05T11:31:19.533Z,72.10
2022-08-05T11:32:14.454Z,70.70
2022-08-05T11:33:13.777Z,72.00
2022-08-05T11:34:15.852Z,71.70
2022-08-05T11:35:15.430Z,71.10
2022-08-05T11:36:15.168Z,68.50
2022-08-05T11:38:14.926Z,67.20
2022-08-05T11:38:26.825Z,70.20
2022-08-05T11:39:13.900Z,66.80
2022-08-05T11:40:12.958Z,69.20
2022-08-05T11:41:58.270Z,66.60
2022-08-05T11:42:18.584Z,61.20
2022-08-05T11:43:13.725Z,61.70
2022-08-05T11:44:40.088Z,59.60
2022-08-05T11:45:27.037Z,62.40
2022-08-05T11:46:27.263Z,60.50
2022-08-05T11:47:19.951Z,61.40
2022-08-05T11:48:15.437Z,61.70
2022-08-05T11:49:17.768Z,60.00
2022-08-05T11:50:15.443Z,56.90
2022-08-05T11:51:43.776Z,54.50
2022-08-05T11:52:17.488Z,55.30
2022-08-05T11:53:17.456Z,57.40
2022-08-05T11:54:13.933Z,59.10
2022-08-05T11:55:16.787Z,59.30
2022-08-05T11:56:16.648Z,57.10
2022-08-05T11:57:25.867Z,57.60
2022-08-05T11:58:18.818Z,59.90
2022-08-05T11:59:21.157Z,60.60
2022-08-05T12:00:15.105Z,58.80
2022-08-05T12:01:13.097Z,61.50
2022-08-05T12:02:30.561Z,63.10
2022-08-05T12:03:13.654Z,63.90
2022-08-05T12:04:13.807Z,63.80
2022-08-05T12:05:18.522Z,64.20
2022-08-05T12:06:13.818Z,62.30
2022-08-05T12:07:13.997Z,63.20
2022-08-05T12:08:18.205Z,61.80
2022-08-05T12:09:20.117Z,62.70
2022-08-05T12:10:13.639Z,61.10
2022-08-05T12:11:17.266Z,60.30
2022-08-05T12:12:13.641Z,62.00
2022-08-05T12:13:15.900Z,61.60
2022-08-05T12:14:12.928Z,58.10
2022-08-05T12:15:17.031Z,58.10
2022-08-05T12:16:14.923Z,56.80
2022-08-05T12:18:00.756Z,56.30
2022-08-05T12:18:14.053Z,57.80
2022-08-05T12:20:25.443Z,53.10
2022-08-05T12:20:25.654Z,55.80
2022-08-05T12:21:15.375Z,55.70
2022-08-05T12:22:13.573Z,57.10
2022-08-05T12:23:13.063Z,58.00
2022-08-05T12:24:13.108Z,59.20
2022-08-05T12:25:14.229Z,57.80
2022-08-05T12:26:13.558Z,56.60
2022-08-05T12:27:21.305Z,56.10
2022-08-05T12:28:15.713Z,54.20
2022-08-05T12:29:16.426Z,53.90
2022-08-05T12:30:15.360Z,54.20
2022-08-05T12:31:23.214Z,57.40
2022-08-05T12:32:14.733Z,60.40
2022-08-05T12:33:27.972Z,60.70
2022-08-05T12:34:20.581Z,60.80
2022-08-05T12:35:13.660Z,60.40
2022-08-05T12:36:13.612Z,59.60
2022-08-05T12:37:17.516Z,60.10
2022-08-05T12:38:13.683Z,58.40
2022-08-05T12:39:15.103Z,60.10
2022-08-05T12:40:26.443Z,60.00
2022-08-05T12:41:14.131Z,61.00
2022-08-05T12:42:14.945Z,61.20
2022-08-05T12:43:20.606Z,60.70
2022-08-05T12:44:14.440Z,59.60
2022-08-05T12:45:13.845Z,59.20
2022-08-05T12:46:14.241Z,59.10
2022-08-05T12:47:25.455Z,61.40